Time;durP1;ratioP1;P1;durP2;ratioP2;P2;SDS_P1;SDS_P2;PMS_P1;PMS_P2;Temp;Humidity;BMP_temperature;BMP_pressure;BME280_temperature;BME280_humidity;BME280_pressure;Samples;Min_cycle;Max_cycle;Signal;HPM_P1;HPM_P2
2022/09/04 00:02:54;;;;;;;5.95;1.25;;;42.30;43.00;;;;;;5012391;28;20416;-69
2022/09/04 00:05:24;;;;;;;;;;;42.20;43.20;;;;;;4994169;28;20104;-67
2022/09/04 00:08:12;;;;;;;10.32;1.50;;;42.00;43.60;;;;;;4993917;28;19956;-67
2022/09/04 00:10:50;;;;;;;10.80;1.58;;;41.80;43.30;;;;;;4994010;28;20083;-68
2022/09/04 00:13:26;;;;;;;4.32;1.20;;;41.60;44.40;;;;;;4993943;28;20025;-67
2022/09/04 00:16:01;;;;;;;9.07;1.10;;;41.60;44.80;;;;;;4992183;28;20031;-66
2022/09/04 00:18:36;;;;;;;7.95;1.27;;;41.40;44.30;;;;;;5011298;28;20033;-65
2022/09/04 00:21:26;;;;;;;6.63;1.50;;;41.20;45.50;;;;;;5012012;28;20032;-67
2022/09/04 00:24:23;;;;;;;9.82;2.17;;;41.20;46.00;;;;;;4993506;28;20049;-65
2022/09/04 00:26:58;;;;;;;11.30;1.85;;;40.90;46.10;;;;;;4993297;28;20030;-67
2022/09/04 00:29:58;;;;;;;5.60;1.95;;;40.90;46.70;;;;;;4993539;28;20061;-66
2022/09/04 00:32:35;;;;;;;8.75;1.95;;;40.90;46.80;;;;;;4991903;28;20061;-66
2022/09/04 00:35:17;;;;;;;9.13;1.70;;;40.70;46.50;;;;;;4992020;28;20498;-63
2022/09/04 00:38:10;;;;;;;4.20;1.30;;;40.60;45.90;;;;;;5010554;28;20030;-67
2022/09/04 00:41:20;;;;;;;16.17;1.48;;;40.60;45.90;;;;;;4992976;28;20041;-66
2022/09/04 00:44:11;;;;;;;11.38;1.65;;;40.50;46.00;;;;;;4991999;28;20025;-69
2022/09/04 00:47:08;;;;;;;8.27;1.65;;;40.50;45.90;;;;;;5010600;28;20040;-65
2022/09/04 00:49:59;;;;;;;6.32;1.35;;;40.40;45.80;;;;;;5009731;28;20032;-65
2022/09/04 00:52:56;;;;;;;8.20;1.23;;;40.40;46.50;;;;;;4993784;28;20125;-66
2022/09/04 00:55:28;;;;;;;;;;;40.30;45.70;;;;;;4993379;28;20042;-65
2022/09/04 00:58:10;;;;;;;7.95;1.30;;;40.20;45.70;;;;;;4992443;28;20364;-64
2022/09/04 01:00:37;;;;;;;9.18;1.42;;;40.10;46.10;;;;;;5009212;28;20153;-65
2022/09/04 01:03:18;;;;;;;8.30;1.70;;;40.10;45.80;;;;;;5011780;28;20025;-66
2022/09/04 01:06:07;;;;;;;9.85;1.52;;;40.10;46.00;;;;;;5009418;28;20029;-65
2022/09/04 01:09:05;;;;;;;9.90;1.20;;;40.00;46.10;;;;;;4975591;28;20033;-68
2022/09/04 01:11:43;;;;;;;5.95;1.10;;;39.90;46.20;;;;;;5012159;28;20026;-65
2022/09/04 01:14:28;;;;;;;2.47;1.20;;;39.80;46.30;;;;;;5007800;28;20109;-65
2022/09/04 01:17:23;;;;;;;8.18;1.38;;;39.80;46.70;;;;;;4988915;28;20030;-63
2022/09/04 01:20:02;;;;;;;10.63;1.65;;;39.70;46.70;;;;;;4990629;28;20388;-67
2022/09/04 01:23:05;;;;;;;5.63;1.50;;;39.70;47.10;;;;;;4991829;28;20033;-64
2022/09/04 01:25:46;;;;;;;10.10;1.80;;;39.60;46.80;;;;;;4991295;28;20030;-66
2022/09/04 01:28:28;;;;;;;12.07;1.38;;;39.50;47.40;;;;;;4990920;28;20392;-64
2022/09/04 01:31:23;;;;;;;7.68;1.30;;;39.40;47.40;;;;;;4974179;28;20507;-64
2022/09/04 01:34:30;;;;;;;10.02;1.67;;;39.40;47.40;;;;;;5007757;28;20022;-65
2022/09/04 01:37:06;;;;;;;7.55;1.65;;;39.30;47.70;;;;;;4978513;28;20030;-66
2022/09/04 01:39:36;;;;;;;12.18;1.40;;;39.30;47.90;;;;;;5007097;28;20026;-63
2022/09/04 01:42:10;;;;;;;9.30;1.77;;;39.10;47.80;;;;;;4991358;28;20034;-67
2022/09/04 01:44:36;;;;;;;14.10;1.88;;;39.10;47.80;;;;;;4991790;28;20523;-64
2022/09/04 01:47:21;;;;;;;7.88;1.77;;;39.10;48.20;;;;;;4989873;28;20034;-65
2022/09/04 01:50:05;;;;;;;7.82;1.70;;;39.00;48.20;;;;;;5008793;28;20371;-66
2022/09/04 01:52:57;;;;;;;16.23;2.13;;;39.00;48.30;;;;;;4990597;28;20488;-64
2022/09/04 01:55:38;;;;;;;12.05;2.22;;;38.90;48.30;;;;;;4992970;28;20030;-66
2022/09/04 01:58:07;;;;;;;9.70;2.22;;;38.80;48.10;;;;;;5007765;28;20026;-67
2022/09/04 02:00:58;;;;;;;12.05;2.95;;;38.80;48.00;;;;;;4989590;28;20053;-66
2022/09/04 02:03:51;;;;;;;6.95;1.70;;;38.70;48.30;;;;;;4989974;28;20022;-65
2022/09/04 02:06:32;;;;;;;10.38;1.45;;;38.60;47.60;;;;;;5008874;28;20397;-64
2022/09/04 02:09:01;;;;;;;10.10;1.27;;;38.60;47.60;;;;;;4991181;28;20030;-63
2022/09/04 02:11:30;;;;;;;7.82;1.50;;;38.60;47.70;;;;;;4994142;28;20029;-65
2022/09/04 02:14:07;;;;;;;5.80;1.48;;;38.50;47.70;;;;;;4989615;28;20384;-63
2022/09/04 02:16:36;;;;;;;9.25;1.88;;;38.50;47.70;;;;;;5007694;28;20034;-65
2022/09/04 02:19:34;;;;;;;14.15;1.88;;;38.50;47.70;;;;;;5006623;28;20104;-65
2022/09/04 02:22:14;;;;;;;10.93;1.65;;;38.40;47.80;;;;;;4981305;28;20060;-64
2022/09/04 02:25:02;;;;;;;12.57;1.63;;;38.30;48.10;;;;;;5010395;28;20026;-65
2022/09/04 02:27:49;;;;;;;7.18;1.58;;;38.30;48.40;;;;;;5008196;28;20060;-60
2022/09/04 02:30:18;;;;;;;8.40;1.33;;;38.20;48.90;;;;;;4991439;28;20030;-65
2022/09/04 02:32:57;;;;;;;6.93;1.08;;;38.20;48.40;;;;;;4973857;28;20033;-66
2022/09/04 02:35:27;;;;;;;7.00;1.30;;;38.10;48.50;;;;;;4989604;28;20057;-64
2022/09/04 02:38:03;;;;;;;11.07;1.10;;;38.10;48.50;;;;;;4989968;28;20044;-64
2022/09/04 02:40:57;;;;;;;12.38;1.33;;;38.10;49.10;;;;;;4996580;28;20021;-66
2022/09/04 02:43:38;;;;;;;10.20;1.70;;;38.00;48.50;;;;;;4990386;28;20121;-67
2022/09/04 02:46:26;;;;;;;14.73;2.13;;;38.00;48.60;;;;;;5007284;28;20391;-67
2022/09/04 02:49:23;;;;;;;9.38;1.77;;;38.00;59.10;;;;;;5006493;28;20030;-65
2022/09/04 02:52:19;;;;;;;10.60;1.70;;;37.90;60.20;;;;;;4957883;28;20026;-65
2022/09/04 02:55:01;;;;;;;7.22;2.10;;;37.90;47.90;;;;;;5005634;28;20477;-65
2022/09/04 02:58:10;;;;;;;17.50;1.90;;;37.90;47.70;;;;;;4990333;28;20041;-64
2022/09/04 03:00:55;;;;;;;13.40;1.20;;;37.90;48.30;;;;;;4977702;28;20038;-67
2022/09/04 03:03:30;;;;;;;8.43;1.15;;;37.90;48.60;;;;;;4989520;28;20472;-65
2022/09/04 03:06:23;;;;;;;5.55;1.95;;;37.90;48.60;;;;;;4988326;28;20030;-65
2022/09/04 03:09:01;;;;;;;9.75;1.40;;;37.90;48.60;;;;;;4959738;28;20030;-66
2022/09/04 03:11:55;;;;;;;13.95;1.90;;;37.90;49.20;;;;;;4973715;28;20484;-65
2022/09/04 03:14:50;;;;;;;10.32;1.42;;;37.80;48.30;;;;;;5006238;28;20050;-65
2022/09/04 03:17:32;;;;;;;11.52;1.77;;;37.80;48.40;;;;;;4975048;28;20184;-66
2022/09/04 03:20:41;;;;;;;14.50;2.17;;;37.80;48.50;;;;;;4978444;28;20091;-68
2022/09/04 03:23:19;;;;;;;12.25;2.10;;;37.80;48.60;;;;;;4950421;28;20039;-66
2022/09/04 03:26:00;;;;;;;11.00;2.10;;;37.70;48.80;;;;;;4986861;28;20030;-67
2022/09/04 03:28:54;;;;;;;16.42;1.90;;;37.70;48.80;;;;;;4975282;28;20026;-67
2022/09/04 03:31:36;;;;;;;8.48;1.95;;;37.70;49.10;;;;;;4988111;28;20022;-65
2022/09/04 03:34:32;;;;;;;11.57;2.15;;;37.70;49.20;;;;;;4976004;28;20038;-66
2022/09/04 03:37:21;;;;;;;13.90;2.33;;;37.70;49.10;;;;;;5007821;28;20377;-67
2022/09/04 03:40:10;;;;;;;15.82;2.33;;;37.60;49.10;;;;;;4990243;28;20041;-66
2022/09/04 03:42:53;;;;;;;11.57;2.45;;;37.60;49.10;;;;;;4994830;28;20061;-67
2022/09/04 03:45:28;;;;;;;8.75;2.05;;;37.60;49.00;;;;;;5006671;28;20022;-64
2022/09/04 03:48:04;;;;;;;13.68;2.38;;;37.50;48.50;;;;;;4990580;28;20041;-66
2022/09/04 03:50:49;;;;;;;17.88;2.53;;;37.60;48.90;;;;;;4990993;28;20046;-65
2022/09/04 03:53:27;;;;;;;18.40;2.50;;;37.60;49.20;;;;;;4974875;28;20064;-66
2022/09/04 03:56:05;;;;;;;10.38;2.20;;;37.50;48.80;;;;;;5004320;28;20033;-64
2022/09/04 03:58:53;;;;;;;13.43;1.98;;;37.50;48.90;;;;;;4988809;28;20122;-65
2022/09/04 04:01:41;;;;;;;16.27;2.33;;;37.50;48.70;;;;;;5006497;28;20487;-65
2022/09/04 04:04:12;;;;;;;7.50;1.75;;;37.50;48.50;;;;;;5008393;28;20577;-66
2022/09/04 04:07:23;;;;;;;11.88;1.60;;;37.50;48.30;;;;;;4990808;28;20144;-67
2022/09/04 04:10:07;;;;;;;9.13;1.67;;;37.40;47.60;;;;;;4962271;28;20113;-68
2022/09/04 04:12:41;;;;;;;13.93;2.30;;;37.40;47.10;;;;;;4991798;28;20472;-66
2022/09/04 04:15:29;;;;;;;19.40;2.13;;;37.40;47.00;;;;;;4992504;28;20080;-65
2022/09/04 04:18:12;;;;;;;17.65;2.30;;;37.40;47.00;;;;;;4984690;28;20025;-65
2022/09/04 04:20:55;;;;;;;12.48;2.13;;;37.40;46.90;;;;;;5011784;28;20029;-66
2022/09/04 04:23:32;;;;;;;20.48;2.53;;;37.40;46.80;;;;;;4995311;28;20072;-65
2022/09/04 04:26:12;;;;;;;13.18;1.88;;;37.40;46.80;;;;;;4992831;28;20408;-66
2022/09/04 04:28:58;;;;;;;16.98;1.88;;;37.30;46.50;;;;;;5011461;28;20480;-65
2022/09/04 04:32:09;;;;;;;11.50;1.88;;;37.30;46.50;;;;;;4993299;28;20112;-65
2022/09/04 04:34:57;;;;;;;13.27;2.08;;;37.30;46.50;;;;;;5011038;28;20314;-65
2022/09/04 04:37:35;;;;;;;12.93;2.20;;;37.30;46.70;;;;;;4993155;28;20030;-66
2022/09/04 04:40:10;;;;;;;16.33;2.65;;;37.30;46.80;;;;;;4992865;28;20076;-66
2022/09/04 04:42:53;;;;;;;18.30;2.67;;;37.30;47.00;;;;;;4991168;28;20357;-65
2022/09/04 04:45:49;;;;;;;12.82;2.33;;;37.20;46.60;;;;;;4991960;28;20384;-66
2022/09/04 04:48:40;;;;;;;16.15;3.03;;;37.20;46.60;;;;;;5000830;28;20385;-65
2022/09/04 04:51:15;;;;;;;12.23;2.72;;;37.20;46.80;;;;;;4993501;28;20026;-67
2022/09/04 04:53:50;;;;;;;14.57;2.23;;;37.10;46.90;;;;;;5010200;28;20029;-66
2022/09/04 04:56:28;;;;;;;10.32;2.17;;;37.10;46.70;;;;;;5010833;28;20052;-65
2022/09/04 04:59:22;;;;;;;15.15;2.53;;;37.10;46.50;;;;;;4978719;28;20034;-64
2022/09/04 05:02:19;;;;;;;16.08;2.03;;;37.10;46.90;;;;;;4993411;28;20030;-64
2022/09/04 05:05:17;;;;;;;15.77;2.63;;;37.10;46.70;;;;;;4992064;28;20109;-65
2022/09/04 05:07:59;;;;;;;8.13;1.88;;;37.10;46.80;;;;;;4979596;28;20037;-65
2022/09/04 05:11:06;;;;;;;12.80;2.15;;;37.10;46.80;;;;;;5004158;28;20029;-65
2022/09/04 05:13:45;;;;;;;10.50;1.80;;;37.00;47.00;;;;;;5009804;28;20071;-66
2022/09/04 05:16:29;;;;;;;8.38;1.75;;;37.00;47.30;;;;;;5010431;28;20030;-65
2022/09/04 05:19:35;;;;;;;4.75;1.48;;;37.00;47.30;;;;;;4991295;28;20022;-66
2022/09/04 05:22:29;;;;;;;6.78;1.42;;;37.00;48.00;;;;;;4988961;28;20176;-65
2022/09/04 05:25:23;;;;;;;7.22;1.73;;;36.90;47.80;;;;;;4975058;28;20169;-66
2022/09/04 05:28:20;;;;;;;5.35;1.42;;;36.90;47.90;;;;;;4990519;28;20029;-65
2022/09/04 05:31:05;;;;;;;5.68;1.35;;;36.90;47.80;;;;;;4989439;28;20511;-66
2022/09/04 05:33:54;;;;;;;7.40;1.52;;;36.80;47.50;;;;;;4987895;28;20499;-65
2022/09/04 05:36:42;;;;;;;5.65;1.30;;;36.80;47.80;;;;;;4992431;28;20026;-63
2022/09/04 05:39:26;;;;;;;4.78;1.25;;;36.80;47.90;;;;;;4988266;28;20073;-66
2022/09/04 05:41:55;;;;;;;4.70;1.20;;;36.70;46.60;;;;;;4990386;28;20508;-67
2022/09/04 05:44:48;;;;;;;7.93;1.30;;;36.70;47.10;;;;;;4990517;28;20140;-67
2022/09/04 05:47:23;;;;;;;5.15;1.00;;;36.70;46.80;;;;;;4973187;28;20035;-67
2022/09/04 05:50:15;;;;;;;5.40;1.20;;;36.70;47.80;;;;;;4987602;28;20034;-65
2022/09/04 05:53:18;;;;;;;4.30;1.15;;;36.70;47.00;;;;;;4987719;28;20038;-66
2022/09/04 05:55:54;;;;;;;4.25;1.38;;;36.70;46.40;;;;;;4987586;28;20146;-65
2022/09/04 05:58:48;;;;;;;5.95;1.38;;;36.60;46.40;;;;;;4990595;28;20042;-66
2022/09/04 06:01:22;;;;;;;4.57;1.00;;;36.60;46.60;;;;;;4991252;28;20077;-65
2022/09/04 06:03:59;;;;;;;4.55;0.95;;;36.60;46.40;;;;;;4990335;28;20029;-65
2022/09/04 06:06:37;;;;;;;3.67;1.30;;;36.60;47.70;;;;;;4989779;28;20061;-65
2022/09/04 06:09:34;;;;;;;4.38;1.00;;;36.60;46.80;;;;;;4988463;28;20026;-64
2022/09/04 06:12:27;;;;;;;4.10;0.90;;;36.60;46.80;;;;;;4988305;28;20176;-66
2022/09/04 06:14:57;;;;;;;5.32;1.00;;;36.50;48.20;;;;;;4989687;28;20030;-65
2022/09/04 06:17:23;;;;;;;2.95;0.95;;;36.40;47.40;;;;;;4988350;28;20034;-68
2022/09/04 06:19:52;;;;;;;10.25;1.50;;;36.40;47.90;;;;;;4989600;28;20413;-65
2022/09/04 06:22:30;;;;;;;9.10;1.30;;;36.40;47.40;;;;;;4987073;28;20504;-64
2022/09/04 06:25:22;;;;;;;4.00;1.05;;;36.40;47.90;;;;;;4987921;28;20481;-64
2022/09/04 06:27:54;;;;;;;8.13;1.25;;;36.30;47.90;;;;;;4987091;28;20117;-65
2022/09/04 06:30:21;;;;;;;5.82;1.13;;;36.30;47.80;;;;;;4989656;28;20045;-65
2022/09/04 06:33:12;;;;;;;4.53;0.93;;;36.30;48.10;;;;;;4988511;28;20030;-68
2022/09/04 06:36:17;;;;;;;2.17;1.00;;;36.20;49.30;;;;;;4988310;28;20030;-66
2022/09/04 06:39:03;;;;;;;2.28;1.20;;;36.20;48.70;;;;;;4987059;28;20036;-65
2022/09/04 06:41:38;;;;;;;5.75;1.33;;;36.10;48.70;;;;;;4986408;28;20495;-65
2022/09/04 06:44:41;;;;;;;3.85;1.10;;;36.10;48.70;;;;;;4986882;28;20049;-67
2022/09/04 06:47:21;;;;;;;2.40;1.30;;;36.10;48.10;;;;;;4986969;28;20429;-67
2022/09/04 06:49:50;;;;;;;5.70;1.27;;;36.10;49.20;;;;;;4987302;28;20022;-66
2022/09/04 06:53:07;;;;;;;3.90;1.17;;;36.00;48.40;;;;;;4988998;28;20038;-65
2022/09/04 06:55:45;;;;;;;5.03;1.47;;;36.00;48.90;;;;;;4945491;28;20035;-66
2022/09/04 06:58:48;;;;;;;4.82;1.40;;;36.10;48.40;;;;;;4932619;28;20043;-68
2022/09/04 07:01:42;;;;;;;5.82;1.25;;;36.00;48.30;;;;;;4946936;28;20039;-68
2022/09/04 07:04:26;;;;;;;2.60;1.20;;;36.00;48.50;;;;;;4933360;28;20174;-66
2022/09/04 07:07:14;;;;;;;10.55;1.67;;;35.90;48.70;;;;;;4947869;28;20390;-65
2022/09/04 07:09:48;;;;;;;7.80;1.70;;;35.90;49.20;;;;;;4932802;28;20031;-66
2022/09/04 07:12:29;;;;;;;9.63;1.92;;;35.90;48.90;;;;;;4932415;28;20043;-66
2022/09/04 07:15:40;;;;;;;14.38;2.33;;;35.90;48.90;;;;;;4932354;28;20038;-67
2022/09/04 07:18:29;;;;;;;8.38;1.90;;;35.80;49.00;;;;;;4927521;28;20134;-69
2022/09/04 07:21:14;;;;;;;11.60;2.15;;;35.80;49.00;;;;;;4916193;28;20023;-68
2022/09/04 07:23:44;;;;;;;4.80;1.60;;;35.80;49.20;;;;;;4932676;28;20039;-65
2022/09/04 07:26:33;;;;;;;18.58;2.22;;;35.80;48.50;;;;;;4948274;28;20036;-65
2022/09/04 07:28:59;;;;;;;12.20;4.35;;;35.80;49.00;;;;;;4932819;28;20489;-67
2022/09/04 07:31:46;;;;;;;20.80;5.18;;;35.80;50.10;;;;;;4972602;28;20555;-66
2022/09/04 07:34:23;;;;;;;20.83;5.25;;;35.80;49.50;;;;;;4987966;28;20162;-67
2022/09/04 07:36:53;;;;;;;27.58;6.45;;;35.80;49.70;;;;;;4988680;28;20034;-66
2022/09/04 07:39:42;;;;;;;28.75;7.20;;;35.80;49.70;;;;;;4988092;28;20026;-66
2022/09/04 07:42:29;;;;;;;27.80;6.55;;;35.80;50.00;;;;;;4977862;28;21305;-65
2022/09/04 07:45:33;;;;;;;35.35;7.05;;;35.80;50.10;;;;;;4988378;28;20030;-66
2022/09/04 07:48:23;;;;;;;23.15;6.55;;;35.70;50.00;;;;;;4991047;28;20065;-66
2022/09/04 07:51:02;;;;;;;27.08;6.07;;;35.70;50.80;;;;;;4993398;28;20022;-65
2022/09/04 07:53:40;;;;;;;29.60;5.40;;;35.70;50.30;;;;;;4989620;28;20041;-68
2022/09/04 07:56:34;;;;;;;27.95;5.63;;;35.70;50.60;;;;;;4988786;28;20019;-65
2022/09/04 07:59:23;;;;;;;25.15;5.72;;;35.70;50.70;;;;;;4989762;28;20061;-66
2022/09/04 08:02:27;;;;;;;25.23;6.28;;;35.70;51.30;;;;;;4989905;28;20445;-68
2022/09/04 08:05:10;;;;;;;22.13;5.95;;;35.60;51.30;;;;;;4913707;29;20087;-65
2022/09/04 08:07:39;;;;;;;21.77;5.32;;;35.60;51.70;;;;;;4897529;29;20032;-65
2022/09/04 08:10:13;;;;;;;27.40;5.05;;;35.50;51.80;;;;;;4897032;29;20043;-66
2022/09/04 08:13:13;;;;;;;21.20;4.72;;;35.60;52.00;;;;;;4913509;29;20039;-64
2022/09/04 08:16:18;;;;;;;21.00;4.93;;;35.60;51.50;;;;;;4913555;29;20036;-65
2022/09/04 08:19:13;;;;;;;27.52;4.57;;;35.60;52.00;;;;;;4896750;29;20046;-68
2022/09/04 08:21:46;;;;;;;16.75;4.15;;;35.50;52.20;;;;;;4859668;29;20056;-64
2022/09/04 08:24:15;;;;;;;15.98;3.78;;;35.50;53.00;;;;;;4874211;29;20492;-64
2022/09/04 08:27:02;;;;;;;29.17;4.20;;;35.50;53.10;;;;;;4875268;29;20041;-64
2022/09/04 08:29:46;;;;;;;16.95;3.58;;;35.40;53.10;;;;;;4860803;29;20056;-66
2022/09/04 08:32:42;;;;;;;16.23;3.30;;;35.40;53.30;;;;;;4859182;29;20117;-65
2022/09/04 08:35:33;;;;;;;15.63;3.30;;;35.30;53.50;;;;;;4870979;29;20058;-64
2022/09/04 08:38:21;;;;;;;28.73;3.65;;;35.30;53.80;;;;;;4912564;29;20056;-66
2022/09/04 08:41:24;;;;;;;23.77;3.60;;;35.30;53.60;;;;;;4896046;29;20032;-66
2022/09/04 08:44:27;;;;;;;19.50;3.35;;;35.30;53.70;;;;;;4896338;29;20028;-64
2022/09/04 08:47:17;;;;;;;19.85;3.47;;;35.20;53.90;;;;;;4896452;29;20033;-63
2022/09/04 08:50:22;;;;;;;22.33;3.17;;;35.20;53.50;;;;;;4910934;29;20020;-65
2022/09/04 08:53:00;;;;;;;41.53;3.88;;;35.20;53.20;;;;;;4896516;29;20036;-65
2022/09/04 08:55:48;;;;;;;18.40;2.33;;;35.20;53.00;;;;;;4909442;29;20182;-65
2022/09/04 08:58:26;;;;;;;16.92;2.03;;;35.20;52.70;;;;;;4947273;28;20042;-67
2022/09/04 09:01:17;;;;;;;11.40;2.20;;;35.10;52.60;;;;;;4989052;28;20026;-65
2022/09/04 09:04:10;;;;;;;14.50;1.92;;;35.00;52.90;;;;;;4987686;28;20026;-66
2022/09/04 09:06:39;;;;;;;12.38;1.77;;;34.90;51.90;;;;;;4987999;28;20026;-66
2022/09/04 09:09:46;;;;;;;10.07;1.80;;;34.90;52.20;;;;;;4989430;28;20083;-65
2022/09/04 09:12:43;;;;;;;11.93;2.60;;;34.70;53.10;;;;;;4974275;28;20030;-65
2022/09/04 09:15:25;;;;;;;10.85;2.63;;;34.70;52.50;;;;;;4990389;28;20429;-64
2022/09/04 09:18:03;;;;;;;17.48;3.42;;;34.60;52.60;;;;;;4991221;28;20042;-67
2022/09/04 09:20:44;;;;;;;19.30;4.15;;;34.60;52.60;;;;;;4989973;28;20114;-68
2022/09/04 09:23:36;;;;;;;22.70;5.10;;;34.50;52.90;;;;;;4988932;28;20038;-65
2022/09/04 09:26:15;;;;;;;16.83;6.07;;;34.50;53.00;;;;;;4989635;28;20061;-66
2022/09/04 09:28:54;;;;;;;18.55;6.75;;;34.50;53.00;;;;;;4988581;28;20106;-65
2022/09/04 09:31:42;;;;;;;11.85;6.18;;;34.50;53.50;;;;;;4988905;28;20066;-65
2022/09/04 09:34:40;;;;;;;13.40;4.45;;;34.50;53.40;;;;;;4989573;28;20034;-67
2022/09/04 09:37:22;;;;;;;17.38;5.13;;;34.50;53.60;;;;;;4989411;28;20066;-65
2022/09/04 09:40:40;;;;;;;18.10;4.60;;;34.50;53.80;;;;;;4989772;28;20029;-64
2022/09/04 09:43:46;;;;;;;17.58;3.97;;;34.50;53.70;;;;;;4896047;29;20036;-65
2022/09/04 09:46:23;;;;;;;11.38;3.63;;;34.40;53.90;;;;;;4896264;29;20187;-65
2022/09/04 09:49:11;;;;;;;12.95;3.95;;;34.40;54.80;;;;;;4911385;29;20063;-65
2022/09/04 09:52:01;;;;;;;7.63;2.97;;;34.40;54.70;;;;;;4911040;29;20032;-65
2022/09/04 09:54:37;;;;;;;13.13;3.42;;;34.30;55.30;;;;;;4911975;29;20116;-65
2022/09/04 09:57:32;;;;;;;10.97;3.20;;;34.30;54.80;;;;;;4892685;29;20096;-67
2022/09/04 10:00:11;;;;;;;13.95;2.97;;;34.20;55.30;;;;;;4910298;29;20128;-67
2022/09/04 10:02:58;;;;;;;10.45;2.80;;;34.30;55.70;;;;;;4895518;29;20024;-65
2022/09/04 10:06:15;;;;;;;9.93;2.80;;;34.20;55.90;;;;;;4911871;29;20040;-66
2022/09/04 10:09:04;;;;;;;16.73;2.72;;;34.30;56.80;;;;;;4838915;29;20070;-65
2022/09/04 10:11:44;;;;;;;11.05;2.38;;;34.20;57.50;;;;;;4838934;29;20569;-66
2022/09/04 10:14:44;;;;;;;11.23;2.30;;;34.20;57.90;;;;;;4839726;29;20503;-65
2022/09/04 10:17:44;;;;;;;14.50;2.50;;;34.20;58.60;;;;;;4838715;29;20119;-65
2022/09/04 10:20:32;;;;;;;18.23;2.58;;;34.10;59.50;;;;;;4914304;29;20442;-65
2022/09/04 10:23:02;;;;;;;12.50;3.03;;;34.10;59.70;;;;;;4912419;29;20556;-63
2022/09/04 10:25:58;;;;;;;8.88;3.00;;;34.10;59.90;;;;;;4915575;29;20055;-64
2022/09/04 10:28:39;;;;;;;10.98;3.20;;;34.10;60.00;;;;;;4917099;29;20032;-66
2022/09/04 10:31:30;;;;;;;7.70;3.00;;;34.10;60.30;;;;;;4912550;29;20036;-65
2022/09/04 10:34:22;;;;;;;11.77;3.05;;;34.10;60.50;;;;;;4913416;29;20032;-66
2022/09/04 10:37:26;;;;;;;15.05;3.10;;;34.00;61.00;;;;;;4912221;29;20686;-66
2022/09/04 10:43:16;;;;;;;11.55;2.60;;;34.00;63.50;;;;;;4929046;29;20057;-66
2022/09/04 10:46:05;;;;;;;16.95;3.33;;;33.90;64.40;;;;;;4969050;28;20031;-66
2022/09/04 10:48:35;;;;;;;11.45;3.03;;;33.90;65.30;;;;;;4969162;28;20409;-66
2022/09/04 10:51:07;;;;;;;11.38;2.83;;;33.80;66.70;;;;;;4969103;28;20473;-65
2022/09/04 10:54:05;;;;;;;11.18;2.50;;;33.80;67.20;;;;;;4985558;28;20370;-65
2022/09/04 10:57:00;;;;;;;10.38;2.80;;;33.70;68.40;;;;;;4968145;28;20026;-65
2022/09/04 10:59:51;;;;;;;11.23;2.50;;;33.70;70.20;;;;;;4925360;28;20054;-64
2022/09/04 11:02:43;;;;;;;10.65;2.20;;;33.70;71.00;;;;;;4967521;28;20023;-64
2022/09/04 11:05:33;;;;;;;10.68;2.45;;;33.60;71.00;;;;;;4968922;28;20027;-65
2022/09/04 11:08:27;;;;;;;11.15;2.70;;;33.50;71.60;;;;;;4969095;28;20030;-64
2022/09/04 11:11:12;;;;;;;8.80;2.88;;;33.60;72.30;;;;;;4967782;28;20046;-65
2022/09/04 11:14:16;;;;;;;12.05;2.83;;;33.60;73.10;;;;;;4966787;28;20162;-66
2022/09/04 11:16:58;;;;;;;7.97;2.55;;;33.60;73.60;;;;;;4974177;28;20026;-64
2022/09/04 11:19:52;;;;;;;12.00;2.75;;;33.60;74.20;;;;;;4976582;28;20026;-65
2022/09/04 11:22:51;;;;;;;9.23;2.22;;;33.50;74.70;;;;;;4980226;28;20177;-65
2022/09/04 11:25:46;;;;;;;11.70;2.50;;;33.50;74.90;;;;;;4994775;28;20501;-63
2022/09/04 11:28:19;;;;;;;12.88;2.10;;;33.50;75.20;;;;;;4994089;28;20081;-65
2022/09/04 11:31:04;;;;;;;15.02;2.97;;;33.50;75.60;;;;;;4994286;28;20042;-64
2022/09/04 11:33:49;;;;;;;12.40;2.85;;;33.40;76.10;;;;;;4993039;28;20027;-64
2022/09/04 11:36:52;;;;;;;17.23;3.67;;;33.40;76.50;;;;;;4993262;28;20476;-66
2022/09/04 11:39:34;;;;;;;20.88;4.95;;;33.40;76.80;;;;;;4994218;28;20168;-66
2022/09/04 11:42:27;;;;;;;23.48;5.47;;;33.30;77.30;;;;;;4994237;28;20515;-64
2022/09/04 11:45:05;;;;;;;14.70;5.00;;;33.30;77.70;;;;;;4992986;28;20146;-64
2022/09/04 11:47:53;;;;;;;18.95;4.95;;;33.30;77.90;;;;;;4993894;28;20022;-66
2022/09/04 11:50:39;;;;;;;13.27;4.60;;;33.30;77.90;;;;;;4993903;28;20085;-63
2022/09/04 11:53:23;;;;;;;19.10;4.80;;;33.30;78.30;;;;;;5004005;28;20026;-66
2022/09/04 11:56:00;;;;;;;15.32;3.53;;;33.30;78.20;;;;;;4993756;28;20496;-65
2022/09/04 11:58:45;;;;;;;15.55;3.80;;;33.30;78.30;;;;;;4975093;28;20037;-66
2022/09/04 12:01:23;;;;;;;22.88;3.88;;;33.30;78.20;;;;;;4993557;28;20054;-65
2022/09/04 12:03:55;;;;;;;13.05;3.53;;;33.30;78.30;;;;;;4993718;28;20034;-64
2022/09/04 12:06:33;;;;;;;16.35;4.13;;;33.30;78.40;;;;;;4994312;28;20037;-66
2022/09/04 12:09:21;;;;;;;17.08;4.15;;;33.30;78.60;;;;;;4995867;28;20046;-66
2022/09/04 12:12:09;;;;;;;12.40;3.08;;;33.30;78.80;;;;;;4992998;28;20125;-66
2022/09/04 12:14:43;;;;;;;13.13;3.13;;;33.20;79.10;;;;;;4994102;28;20030;-67
2022/09/04 12:17:37;;;;;;;15.52;2.92;;;33.20;79.30;;;;;;4977248;28;20030;-66
2022/09/04 12:20:33;;;;;;;15.50;2.65;;;33.20;79.60;;;;;;4993197;28;20026;-67
2022/09/04 12:23:12;;;;;;;10.60;2.30;;;33.20;79.70;;;;;;4993073;28;20070;-66
2022/09/04 12:25:50;;;;;;;9.75;2.35;;;33.20;79.80;;;;;;4991802;28;20035;-66
2022/09/04 12:28:49;;;;;;;12.25;2.20;;;33.10;80.10;;;;;;4993406;28;20026;-66
2022/09/04 12:31:37;;;;;;;10.25;2.20;;;33.20;80.50;;;;;;4960642;28;20026;-68
2022/09/04 12:34:09;;;;;;;14.05;2.35;;;33.10;80.40;;;;;;4991505;28;20022;-67
2022/09/04 12:37:10;;;;;;;9.48;1.92;;;33.10;80.80;;;;;;4991434;28;20562;-65
2022/09/04 12:39:46;;;;;;;10.43;1.92;;;33.10;81.10;;;;;;4976609;28;20030;-65
2022/09/04 12:42:25;;;;;;;9.68;1.77;;;33.10;81.00;;;;;;4990243;28;20022;-66
2022/09/04 12:45:20;;;;;;;4.85;1.23;;;33.10;81.30;;;;;;4991326;28;20025;-65
2022/09/04 12:48:02;;;;;;;5.35;1.70;;;33.00;81.40;;;;;;4990693;28;21404;-65
2022/09/04 12:50:39;;;;;;;8.48;2.10;;;33.00;81.30;;;;;;4990878;28;20070;-66
2022/09/04 12:53:08;;;;;;;8.10;1.73;;;33.00;81.40;;;;;;4990807;28;20033;-66
2022/09/04 12:56:09;;;;;;;8.43;2.70;;;33.00;81.40;;;;;;4991138;28;20030;-67
2022/09/04 12:59:14;;;;;;;10.60;2.50;;;33.00;81.10;;;;;;4985785;28;20082;-65
2022/09/04 13:01:48;;;;;;;11.93;4.28;;;33.00;81.20;;;;;;4992658;28;20031;-67
2022/09/04 13:04:18;;;;;;;10.55;4.55;;;33.00;80.70;;;;;;4974417;28;20018;-65
2022/09/04 13:06:55;;;;;;;12.27;4.15;;;33.00;80.50;;;;;;4990875;28;20018;-65
2022/09/04 13:09:33;;;;;;;13.85;4.40;;;33.00;80.30;;;;;;4973714;28;20034;-66
2022/09/04 13:12:22;;;;;;;12.30;3.83;;;32.90;79.80;;;;;;5004930;28;20093;-65
2022/09/04 13:14:56;;;;;;;13.63;4.47;;;33.00;79.60;;;;;;4989609;28;20087;-65
2022/09/04 13:17:50;;;;;;;12.35;4.07;;;32.90;79.30;;;;;;4991668;28;20503;-67
2022/09/04 13:20:28;;;;;;;15.20;4.60;;;32.90;79.20;;;;;;5006353;28;20385;-66
2022/09/04 13:23:17;;;;;;;17.73;4.68;;;32.80;78.60;;;;;;4975674;28;20038;-67
2022/09/04 13:26:01;;;;;;;13.43;5.10;;;32.90;78.50;;;;;;4972714;28;20022;-65
2022/09/04 13:29:15;;;;;;;15.88;4.93;;;32.90;78.50;;;;;;4988517;28;20031;-67
2022/09/04 13:32:03;;;;;;;17.10;5.30;;;32.90;78.50;;;;;;4979321;28;20042;-64
2022/09/04 13:34:48;;;;;;;13.48;4.88;;;32.90;78.40;;;;;;4989407;28;20026;-67
2022/09/04 13:37:28;;;;;;;18.02;5.05;;;32.80;78.70;;;;;;4988098;28;20413;-64
2022/09/04 13:40:13;;;;;;;15.05;4.32;;;32.90;78.20;;;;;;4977335;28;20019;-65
2022/09/04 13:43:06;;;;;;;20.10;4.63;;;32.90;78.50;;;;;;4988610;28;20034;-65
2022/09/04 13:45:42;;;;;;;18.38;4.35;;;32.90;78.10;;;;;;4989212;28;20022;-65
2022/09/04 13:48:18;;;;;;;14.43;4.38;;;32.90;78.70;;;;;;4990105;28;20057;-65
2022/09/04 13:50:56;;;;;;;15.85;3.92;;;32.90;78.80;;;;;;4973462;28;20480;-65
2022/09/04 13:53:27;;;;;;;17.08;3.40;;;33.00;78.60;;;;;;4988588;28;20026;-65
2022/09/04 13:56:05;;;;;;;13.68;3.33;;;33.00;78.30;;;;;;4988475;28;20547;-64
2022/09/04 13:58:40;;;;;;;12.43;3.78;;;33.00;78.30;;;;;;4989472;28;20042;-64
2022/09/04 14:01:14;;;;;;;17.98;3.67;;;33.10;78.70;;;;;;4988046;28;20045;-64
2022/09/04 14:04:06;;;;;;;14.50;3.03;;;33.00;78.90;;;;;;4989209;28;20072;-64
2022/09/04 14:06:35;;;;;;;10.93;3.63;;;33.10;79.10;;;;;;4988926;28;20027;-65
2022/09/04 14:09:04;;;;;;;17.83;4.03;;;33.10;79.30;;;;;;4989731;28;20049;-63
2022/09/04 14:11:39;;;;;;;16.67;3.88;;;33.10;79.40;;;;;;4972045;28;20053;-65
2022/09/04 14:14:44;;;;;;;11.33;3.43;;;33.10;79.50;;;;;;4988549;28;20027;-64
2022/09/04 14:17:11;;;;;;;12.85;2.67;;;33.10;79.40;;;;;;4946783;28;20133;-65
2022/09/04 14:19:59;;;;;;;13.40;3.00;;;33.20;79.30;;;;;;5000366;28;20038;-65